Time;durP1;ratioP1;P1;durP2;ratioP2;P2;SDS_P1;SDS_P2;PMS_P1;PMS_P2;Temp;Humidity;BMP_temperature;BMP_pressure;BME280_temperature;BME280_humidity;BME280_pressure;Samples;Min_cycle;Max_cycle;Signal;HPM_P1;HPM_P2
2022/07/29 00:00:46;;;;;;;8.70;4.30;;;;;;;;;;4977744;28;20267;-45
2022/07/29 00:03:12;;;;;;;9.60;4.87;;;;;;;;;;4976867;28;20182;-44
2022/07/29 00:05:39;;;;;;;6.70;4.40;;;;;;;;;;4975133;28;20520;-43
2022/07/29 00:08:05;;;;;;;8.20;4.37;;;;;;;;;;4976294;28;20267;-42
2022/07/29 00:10:31;;;;;;;8.93;5.40;;;;;;;;;;4977807;28;20619;-42
2022/07/29 00:12:57;;;;;;;11.77;6.97;;;;;;;;;;4976317;28;20809;-42
2022/07/29 00:15:24;;;;;;;10.23;7.67;;;;;;;;;;4975925;28;20252;-42
2022/07/29 00:17:50;;;;;;;11.53;7.67;;;;;;;;;;4976304;28;20493;-42
2022/07/29 00:20:16;;;;;;;11.63;7.93;;;;;;;;;;4978944;28;20180;-43
2022/07/29 00:22:42;;;;;;;12.50;8.73;;;;;;;;;;4974600;28;20895;-42
2022/07/29 00:25:08;;;;;;;12.17;9.73;;;;;;;;;;4977870;28;20193;-43
2022/07/29 00:27:35;;;;;;;12.23;10.57;;;;;;;;;;4975792;28;20176;-43
2022/07/29 00:30:02;;;;;;;17.77;11.57;;;;;;;;;;4973915;28;20176;-43
2022/07/29 00:32:28;;;;;;;11.10;9.83;;;;;;;;;;4974810;28;20200;-43
2022/07/29 00:37:38;;;;;;;14.47;12.00;;;;;;;;;;4973881;28;20216;-42
2022/07/29 00:40:05;;;;;;;14.90;11.07;;;;;;;;;;4971714;28;20251;-43
2022/07/29 00:42:31;;;;;;;14.77;11.70;;;;;;;;;;4977334;28;20630;-43
2022/07/29 00:44:57;;;;;;;13.37;10.47;;;;;;;;;;4975979;28;20226;-43
2022/07/29 00:47:23;;;;;;;14.80;10.67;;;;;;;;;;4974024;28;20181;-43
2022/07/29 00:49:49;;;;;;;12.37;10.73;;;;;;;;;;4977492;28;20209;-43
2022/07/29 00:52:15;;;;;;;12.83;9.50;;;;;;;;;;4976472;28;20552;-43
2022/07/29 00:54:41;;;;;;;15.03;11.47;;;;;;;;;;4973554;28;21137;-43
2022/07/29 00:57:08;;;;;;;15.63;10.27;;;;;;;;;;4973434;28;20448;-43
2022/07/29 00:59:34;;;;;;;13.57;9.67;;;;;;;;;;4973814;28;20174;-42
2022/07/29 01:02:00;;;;;;;12.53;8.97;;;;;;;;;;4974978;28;20189;-43
2022/07/29 01:04:27;;;;;;;11.17;9.17;;;;;;;;;;4975324;28;20587;-43
2022/07/29 01:06:54;;;;;;;11.27;9.00;;;;;;;;;;4977494;28;20184;-43
2022/07/29 01:09:20;;;;;;;14.37;8.60;;;;;;;;;;4973619;28;20185;-43
2022/07/29 01:11:48;;;;;;;12.60;8.60;;;;;;;;;;4975719;28;20570;-43
2022/07/29 01:14:14;;;;;;;14.70;7.67;;;;;;;;;;4975755;28;20207;-43
2022/07/29 01:16:43;;;;;;;9.77;6.87;;;;;;;;;;4974855;28;20209;-43
2022/07/29 01:19:28;;;;;;;11.70;6.50;;;;;;;;;;4970599;28;20610;-42
2022/07/29 01:21:58;;;;;;;8.07;6.40;;;;;;;;;;4976887;28;20374;-42
2022/07/29 01:24:42;;;;;;;7.73;5.93;;;;;;;;;;4974613;28;20188;-43
2022/07/29 01:27:20;;;;;;;9.00;5.37;;;;;;;;;;4971073;28;20404;-45
2022/07/29 01:29:49;;;;;;;7.23;5.30;;;;;;;;;;4974959;28;20275;-45
2022/07/29 01:32:19;;;;;;;6.23;5.30;;;;;;;;;;4968644;28;20876;-43
2022/07/29 01:34:45;;;;;;;6.27;4.77;;;;;;;;;;4973894;28;20169;-42
2022/07/29 01:37:17;;;;;;;5.90;4.10;;;;;;;;;;4977438;28;20184;-42
2022/07/29 01:39:44;;;;;;;7.33;4.37;;;;;;;;;;4976460;28;20606;-43
2022/07/29 01:42:16;;;;;;;6.97;4.30;;;;;;;;;;4976322;28;20696;-43
2022/07/29 01:44:46;;;;;;;5.50;4.27;;;;;;;;;;4972281;28;20189;-43
2022/07/29 01:47:14;;;;;;;7.80;4.27;;;;;;;;;;4977379;28;20278;-43
2022/07/29 01:49:43;;;;;;;5.87;4.40;;;;;;;;;;4975011;28;20177;-42
2022/07/29 01:52:13;;;;;;;7.23;4.67;;;;;;;;;;4976378;28;20548;-43
2022/07/29 01:54:45;;;;;;;6.93;5.43;;;;;;;;;;4978756;28;20713;-45
2022/07/29 01:57:17;;;;;;;7.87;6.80;;;;;;;;;;4980182;28;20636;-45
2022/07/29 01:59:43;;;;;;;8.67;6.00;;;;;;;;;;4977701;28;20170;-45
2022/07/29 02:02:11;;;;;;;9.53;6.93;;;;;;;;;;4978070;28;20573;-43
2022/07/29 02:04:40;;;;;;;12.90;8.00;;;;;;;;;;4978175;28;20296;-42
2022/07/29 02:07:07;;;;;;;12.80;9.27;;;;;;;;;;4975932;28;20659;-43
2022/07/29 02:09:35;;;;;;;11.27;8.33;;;;;;;;;;4979119;28;20181;-42
2022/07/29 02:12:02;;;;;;;10.60;8.60;;;;;;;;;;4979514;28;21217;-42
2022/07/29 02:14:32;;;;;;;11.70;9.00;;;;;;;;;;4976068;28;20275;-45
2022/07/29 02:16:59;;;;;;;10.70;8.60;;;;;;;;;;4975463;28;20350;-44
2022/07/29 02:19:26;;;;;;;10.67;8.13;;;;;;;;;;4981077;28;20172;-45
2022/07/29 02:21:53;;;;;;;10.93;8.63;;;;;;;;;;4978354;28;20699;-45
2022/07/29 02:24:20;;;;;;;10.63;7.73;;;;;;;;;;4976171;28;20192;-43
2022/07/29 02:26:47;;;;;;;10.20;8.23;;;;;;;;;;4976199;28;20624;-43
2022/07/29 02:29:15;;;;;;;13.63;8.17;;;;;;;;;;4980437;28;20208;-43
2022/07/29 02:31:43;;;;;;;11.70;7.27;;;;;;;;;;4978138;28;20262;-43
2022/07/29 02:34:09;;;;;;;10.53;7.00;;;;;;;;;;4974947;28;20696;-45
2022/07/29 02:36:36;;;;;;;12.50;7.57;;;;;;;;;;4978203;28;20280;-45
2022/07/29 02:39:03;;;;;;;8.13;6.63;;;;;;;;;;4980697;28;20187;-45
2022/07/29 02:41:31;;;;;;;9.83;7.93;;;;;;;;;;4976937;28;20180;-45
2022/07/29 02:44:00;;;;;;;7.60;6.20;;;;;;;;;;4976232;28;20598;-43
2022/07/29 02:46:30;;;;;;;9.47;6.13;;;;;;;;;;4979325;28;20182;-43
2022/07/29 02:48:59;;;;;;;10.80;6.97;;;;;;;;;;4977997;28;20209;-43
2022/07/29 02:51:45;;;;;;;9.83;6.30;;;;;;;;;;4975273;28;20310;-43
2022/07/29 02:54:15;;;;;;;12.20;7.30;;;;;;;;;;4978629;28;20205;-42
2022/07/29 02:56:43;;;;;;;8.17;6.60;;;;;;;;;;4985961;28;21005;-43
2022/07/29 02:59:10;;;;;;;10.33;6.97;;;;;;;;;;4981662;28;20169;-43
2022/07/29 03:01:39;;;;;;;12.50;7.63;;;;;;;;;;4980455;28;20200;-43
2022/07/29 03:04:05;;;;;;;10.73;7.47;;;;;;;;;;4982223;28;20181;-43
2022/07/29 03:06:34;;;;;;;10.80;7.97;;;;;;;;;;4979874;28;20192;-43
2022/07/29 03:09:00;;;;;;;10.63;8.00;;;;;;;;;;4979139;28;20465;-41
2022/07/29 03:11:27;;;;;;;7.90;6.93;;;;;;;;;;4980353;28;20389;-43
2022/07/29 03:13:54;;;;;;;8.63;7.70;;;;;;;;;;4979410;28;20688;-42
2022/07/29 03:16:20;;;;;;;10.03;7.27;;;;;;;;;;4976619;28;20441;-43
2022/07/29 03:18:47;;;;;;;9.03;6.63;;;;;;;;;;4978019;28;20189;-43
2022/07/29 03:21:13;;;;;;;13.23;7.57;;;;;;;;;;4977802;28;20874;-42
2022/07/29 03:23:45;;;;;;;10.13;6.93;;;;;;;;;;4978661;28;20181;-44
2022/07/29 03:26:11;;;;;;;10.67;7.27;;;;;;;;;;4979902;28;20173;-44
2022/07/29 03:28:37;;;;;;;8.20;6.93;;;;;;;;;;4976097;28;20284;-45
2022/07/29 03:31:03;;;;;;;8.90;6.80;;;;;;;;;;4976072;28;20200;-45
2022/07/29 03:33:30;;;;;;;7.40;6.67;;;;;;;;;;4978557;28;20587;-43
2022/07/29 03:35:56;;;;;;;9.30;6.73;;;;;;;;;;4976850;28;20722;-43
2022/07/29 03:38:24;;;;;;;7.47;6.13;;;;;;;;;;4975042;28;20177;-45
2022/07/29 03:40:53;;;;;;;8.97;6.57;;;;;;;;;;4978791;28;20188;-45
2022/07/29 03:43:20;;;;;;;8.53;7.10;;;;;;;;;;4979883;28;20279;-42
2022/07/29 03:45:49;;;;;;;8.43;7.30;;;;;;;;;;4976476;28;21125;-43
2022/07/29 03:48:16;;;;;;;12.63;8.17;;;;;;;;;;4975806;28;20181;-43
2022/07/29 03:50:43;;;;;;;10.43;8.33;;;;;;;;;;4978258;28;20521;-43
2022/07/29 03:53:09;;;;;;;14.17;8.93;;;;;;;;;;4977705;28;20681;-43
2022/07/29 03:55:42;;;;;;;15.50;11.20;;;;;;;;;;4976053;28;20707;-43
2022/07/29 03:58:08;;;;;;;16.10;12.50;;;;;;;;;;4971757;28;21039;-43
2022/07/29 04:00:38;;;;;;;17.03;12.40;;;;;;;;;;4977238;28;22096;-43
2022/07/29 04:03:04;;;;;;;16.80;12.67;;;;;;;;;;4975851;28;20560;-43
2022/07/29 04:05:30;;;;;;;12.60;10.03;;;;;;;;;;4975554;28;20182;-43
2022/07/29 04:07:57;;;;;;;17.03;12.97;;;;;;;;;;4977279;28;20691;-43
2022/07/29 04:10:23;;;;;;;19.83;12.17;;;;;;;;;;4975249;28;20185;-43
2022/07/29 04:12:49;;;;;;;19.43;13.00;;;;;;;;;;4975967;28;20216;-43
2022/07/29 04:15:15;;;;;;;16.80;12.03;;;;;;;;;;4977057;28;20760;-43
2022/07/29 04:17:41;;;;;;;13.80;11.70;;;;;;;;;;4975325;28;20177;-43
2022/07/29 04:20:08;;;;;;;23.30;14.17;;;;;;;;;;4977423;28;20595;-42
2022/07/29 04:22:34;;;;;;;24.07;14.37;;;;;;;;;;4991645;28;20938;-43
2022/07/29 04:25:00;;;;;;;16.60;11.50;;;;;;;;;;4979989;28;20185;-44
2022/07/29 04:27:26;;;;;;;20.90;13.70;;;;;;;;;;4974943;28;20177;-41
2022/07/29 04:29:52;;;;;;;20.43;13.27;;;;;;;;;;4975514;28;20756;-45
2022/07/29 04:32:18;;;;;;;28.13;15.10;;;;;;;;;;4977054;28;20413;-45
2022/07/29 04:34:46;;;;;;;23.67;14.30;;;;;;;;;;4975694;28;20475;-42
2022/07/29 04:37:12;;;;;;;17.30;14.80;;;;;;;;;;4970867;28;20173;-44
2022/07/29 04:39:38;;;;;;;19.40;13.53;;;;;;;;;;4976844;28;20170;-45
2022/07/29 04:42:04;;;;;;;18.40;15.13;;;;;;;;;;4980306;28;20332;-44
2022/07/29 04:44:31;;;;;;;21.63;14.37;;;;;;;;;;4975005;28;20645;-41
2022/07/29 04:46:57;;;;;;;14.83;12.63;;;;;;;;;;4973319;28;20188;-42
2022/07/29 04:49:24;;;;;;;17.30;13.40;;;;;;;;;;4974539;28;20182;-43
2022/07/29 04:51:50;;;;;;;21.13;15.90;;;;;;;;;;4973950;28;20194;-43
2022/07/29 04:54:16;;;;;;;16.47;14.43;;;;;;;;;;4973845;28;20296;-43
2022/07/29 04:56:42;;;;;;;22.80;15.57;;;;;;;;;;4973843;28;20185;-42
2022/07/29 04:59:08;;;;;;;21.77;17.13;;;;;;;;;;4976967;28;20820;-43
2022/07/29 05:01:34;;;;;;;23.40;18.37;;;;;;;;;;4975427;28;20175;-45
2022/07/29 05:04:00;;;;;;;20.30;17.83;;;;;;;;;;4974468;28;20908;-43
2022/07/29 05:06:27;;;;;;;23.37;18.83;;;;;;;;;;4975806;28;20180;-42
2022/07/29 05:08:53;;;;;;;20.30;17.73;;;;;;;;;;4976499;28;20185;-42
2022/07/29 05:11:19;;;;;;;24.93;18.93;;;;;;;;;;4973031;28;20400;-42
2022/07/29 05:13:45;;;;;;;20.93;17.73;;;;;;;;;;4976037;28;20166;-43
2022/07/29 05:16:11;;;;;;;26.83;19.07;;;;;;;;;;4977189;28;20184;-43
2022/07/29 05:18:37;;;;;;;21.77;18.90;;;;;;;;;;4974282;28;21299;-42
2022/07/29 05:21:03;;;;;;;23.27;17.73;;;;;;;;;;4971568;28;20669;-43
2022/07/29 05:23:29;;;;;;;20.37;16.90;;;;;;;;;;4978031;28;20467;-43
2022/07/29 05:25:55;;;;;;;22.50;18.33;;;;;;;;;;4982545;28;20447;-43
2022/07/29 05:28:21;;;;;;;20.30;16.20;;;;;;;;;;4982464;28;20173;-43
2022/07/29 05:30:48;;;;;;;19.97;17.57;;;;;;;;;;4982913;28;20181;-43
2022/07/29 05:33:14;;;;;;;26.63;17.70;;;;;;;;;;4980165;28;20184;-43
2022/07/29 05:35:40;;;;;;;22.57;18.33;;;;;;;;;;4982043;28;20592;-43
2022/07/29 05:38:06;;;;;;;21.80;17.33;;;;;;;;;;4982270;28;20166;-43
2022/07/29 05:40:32;;;;;;;23.70;18.40;;;;;;;;;;4980053;28;20185;-43
2022/07/29 05:42:58;;;;;;;19.87;16.07;;;;;;;;;;4976748;28;20353;-43
2022/07/29 05:45:24;;;;;;;19.27;16.57;;;;;;;;;;4981953;28;21187;-42
2022/07/29 05:47:50;;;;;;;20.30;15.37;;;;;;;;;;4981589;28;20830;-43
2022/07/29 05:50:16;;;;;;;17.47;15.60;;;;;;;;;;4982842;28;20193;-43
2022/07/29 05:52:42;;;;;;;20.83;17.50;;;;;;;;;;4985895;28;20834;-43
2022/07/29 05:55:09;;;;;;;21.13;17.00;;;;;;;;;;4987009;28;20481;-43
2022/07/29 05:57:35;;;;;;;20.03;16.47;;;;;;;;;;4990678;28;20582;-43
2022/07/29 06:00:01;;;;;;;20.43;17.73;;;;;;;;;;4989526;28;20177;-43
2022/07/29 06:02:27;;;;;;;19.83;17.67;;;;;;;;;;4989098;28;20733;-43
2022/07/29 06:04:53;;;;;;;21.30;16.77;;;;;;;;;;4985517;28;20229;-43
2022/07/29 06:07:19;;;;;;;18.63;16.20;;;;;;;;;;4989181;28;20169;-42
2022/07/29 06:09:45;;;;;;;21.63;16.97;;;;;;;;;;4991612;28;20616;-43
2022/07/29 06:12:11;;;;;;;23.37;18.40;;;;;;;;;;4988689;28;20223;-43
2022/07/29 06:14:38;;;;;;;22.70;18.67;;;;;;;;;;4985079;28;20700;-43
2022/07/29 06:17:05;;;;;;;20.50;15.77;;;;;;;;;;4987360;28;20258;-43
2022/07/29 06:19:31;;;;;;;20.97;17.20;;;;;;;;;;4990975;28;20184;-43
2022/07/29 06:21:57;;;;;;;21.03;17.03;;;;;;;;;;4985742;28;20544;-43
2022/07/29 06:24:23;;;;;;;19.83;17.03;;;;;;;;;;5000784;28;20617;-43
2022/07/29 06:26:49;;;;;;;20.50;16.30;;;;;;;;;;4990231;28;20173;-43
2022/07/29 06:29:15;;;;;;;20.47;15.50;;;;;;;;;;4987102;28;20912;-43
2022/07/29 06:31:41;;;;;;;18.07;15.90;;;;;;;;;;4984575;28;21006;-43
2022/07/29 06:34:08;;;;;;;17.03;15.23;;;;;;;;;;5000528;28;20177;-43
2022/07/29 06:36:38;;;;;;;17.23;14.13;;;;;;;;;;4987468;28;20195;-43
2022/07/29 06:39:07;;;;;;;17.47;14.90;;;;;;;;;;4987161;28;20638;-43
2022/07/29 06:41:34;;;;;;;18.50;14.43;;;;;;;;;;4984919;28;20181;-43
2022/07/29 06:44:00;;;;;;;20.47;15.17;;;;;;;;;;4987480;28;20181;-43
2022/07/29 06:46:27;;;;;;;15.33;13.23;;;;;;;;;;4990708;28;20173;-43
2022/07/29 06:48:53;;;;;;;15.07;12.70;;;;;;;;;;4985886;28;20606;-43
2022/07/29 06:51:19;;;;;;;16.93;13.33;;;;;;;;;;4975638;28;20201;-43
2022/07/29 06:53:45;;;;;;;16.13;12.90;;;;;;;;;;4988301;28;20234;-43
2022/07/29 06:56:13;;;;;;;17.43;13.20;;;;;;;;;;4984634;28;20200;-43
2022/07/29 06:58:39;;;;;;;13.53;12.17;;;;;;;;;;4984773;28;20703;-43
2022/07/29 07:01:06;;;;;;;16.57;12.70;;;;;;;;;;4985639;28;20248;-43
2022/07/29 07:03:33;;;;;;;14.57;12.03;;;;;;;;;;4987273;28;20173;-43
2022/07/29 07:05:59;;;;;;;16.10;12.67;;;;;;;;;;4990017;28;20581;-43
2022/07/29 07:08:26;;;;;;;12.50;11.27;;;;;;;;;;4985181;28;20288;-43
2022/07/29 07:10:52;;;;;;;13.93;12.50;;;;;;;;;;4985609;28;20725;-43
2022/07/29 07:13:19;;;;;;;16.73;12.10;;;;;;;;;;4985446;28;20478;-43
2022/07/29 07:15:47;;;;;;;15.17;12.33;;;;;;;;;;4986816;28;20680;-43
2022/07/29 07:18:13;;;;;;;13.47;12.07;;;;;;;;;;4985169;28;20420;-43
2022/07/29 07:20:40;;;;;;;16.43;13.07;;;;;;;;;;4986380;28;20169;-43
2022/07/29 07:23:06;;;;;;;15.97;11.23;;;;;;;;;;4989665;28;20448;-42
2022/07/29 07:25:32;;;;;;;17.80;11.60;;;;;;;;;;4980583;28;20886;-43
2022/07/29 07:27:58;;;;;;;15.03;11.10;;;;;;;;;;4979478;28;20169;-43
2022/07/29 07:30:24;;;;;;;19.70;12.07;;;;;;;;;;4984131;28;20827;-43
2022/07/29 07:32:51;;;;;;;16.27;12.43;;;;;;;;;;4978831;28;20307;-43
2022/07/29 07:35:17;;;;;;;12.70;10.07;;;;;;;;;;4985420;28;20169;-43
2022/07/29 07:37:43;;;;;;;12.57;8.33;;;;;;;;;;4990834;28;20170;-43
2022/07/29 07:40:11;;;;;;;11.53;9.23;;;;;;;;;;4987453;28;20365;-43
2022/07/29 07:42:38;;;;;;;12.40;9.53;;;;;;;;;;4986408;28;20826;-43
2022/07/29 07:45:05;;;;;;;10.77;7.50;;;;;;;;;;4985906;28;20537;-43
2022/07/29 07:47:31;;;;;;;8.83;6.40;;;;;;;;;;4987653;28;20189;-43
2022/07/29 07:49:58;;;;;;;9.00;6.80;;;;;;;;;;4982093;28;20185;-45
2022/07/29 07:52:24;;;;;;;8.47;6.70;;;;;;;;;;4989170;28;20192;-45
2022/07/29 07:54:50;;;;;;;10.20;7.67;;;;;;;;;;4988512;28;20185;-45
2022/07/29 07:57:16;;;;;;;9.17;6.17;;;;;;;;;;4985063;28;20739;-45
2022/07/29 07:59:43;;;;;;;11.37;7.40;;;;;;;;;;4983036;28;20181;-45
2022/07/29 08:02:09;;;;;;;8.63;6.80;;;;;;;;;;4982448;28;20235;-43
2022/07/29 08:04:36;;;;;;;8.27;6.37;;;;;;;;;;4976106;28;20778;-43
2022/07/29 08:07:02;;;;;;;10.93;8.00;;;;;;;;;;4977165;28;20201;-43
2022/07/29 08:09:29;;;;;;;8.93;7.70;;;;;;;;;;4980271;28;20180;-43
2022/07/29 08:11:55;;;;;;;8.87;7.13;;;;;;;;;;4980947;28;20209;-43
2022/07/29 08:14:21;;;;;;;10.60;7.10;;;;;;;;;;4983934;28;20169;-43
2022/07/29 08:16:47;;;;;;;8.47;6.97;;;;;;;;;;4989337;28;20173;-43
2022/07/29 08:19:13;;;;;;;7.83;7.00;;;;;;;;;;4988288;28;20276;-43
2022/07/29 08:21:39;;;;;;;8.60;6.13;;;;;;;;;;4987958;28;21104;-43
2022/07/29 08:26:50;;;;;;;9.60;6.00;;;;;;;;;;4985709;28;20270;-43
2022/07/29 08:29:16;;;;;;;8.63;6.50;;;;;;;;;;4984482;28;20184;-43
2022/07/29 08:31:43;;;;;;;7.87;5.93;;;;;;;;;;4983227;28;20658;-43
2022/07/29 08:34:09;;;;;;;7.43;6.60;;;;;;;;;;4987449;28;20267;-44
2022/07/29 08:36:35;;;;;;;9.23;7.30;;;;;;;;;;4990100;28;20173;-44
2022/07/29 08:39:02;;;;;;;7.87;6.37;;;;;;;;;;4983377;28;20862;-43
2022/07/29 08:41:28;;;;;;;7.30;6.20;;;;;;;;;;4984832;28;20182;-44
2022/07/29 08:43:55;;;;;;;7.93;6.80;;;;;;;;;;4986209;28;20430;-43
2022/07/29 08:46:21;;;;;;;9.90;8.20;;;;;;;;;;4990868;28;20626;-43
2022/07/29 08:48:47;;;;;;;14.10;9.47;;;;;;;;;;4985208;28;20285;-43
2022/07/29 08:51:15;;;;;;;12.67;9.20;;;;;;;;;;4986174;28;20789;-43
2022/07/29 08:53:42;;;;;;;10.23;8.10;;;;;;;;;;4985562;28;20713;-43
2022/07/29 08:56:13;;;;;;;10.83;9.50;;;;;;;;;;4987625;28;20215;-43
2022/07/29 08:58:39;;;;;;;13.03;9.83;;;;;;;;;;4982210;28;20263;-43
2022/07/29 09:01:07;;;;;;;16.23;11.77;;;;;;;;;;4985989;28;20711;-43
2022/07/29 09:03:34;;;;;;;12.67;9.93;;;;;;;;;;4985732;28;20598;-43
2022/07/29 09:06:01;;;;;;;13.33;9.23;;;;;;;;;;4982461;28;20247;-43
2022/07/29 09:08:28;;;;;;;14.33;10.80;;;;;;;;;;4985610;28;20378;-44
2022/07/29 09:10:58;;;;;;;13.60;10.37;;;;;;;;;;4987391;28;20929;-44
2022/07/29 09:13:24;;;;;;;12.33;9.93;;;;;;;;;;4984880;28;20466;-44
2022/07/29 09:15:51;;;;;;;11.70;8.87;;;;;;;;;;4983749;28;20201;-44
2022/07/29 09:18:49;;;;;;;11.17;9.77;;;;;;;;;;4985093;28;20747;-44
2022/07/29 09:24:06;;;;;;;12.67;10.00;;;;;;;;;;4985167;28;20191;-44
2022/07/29 09:26:33;;;;;;;10.23;9.10;;;;;;;;;;4986567;28;20165;-43
2022/07/29 09:28:59;;;;;;;8.03;7.23;;;;;;;;;;4987291;28;20278;-43
2022/07/29 09:31:36;;;;;;;9.17;6.97;;;;;;;;;;4984230;28;20934;-43
2022/07/29 09:34:03;;;;;;;8.93;6.87;;;;;;;;;;4984889;28;20168;-43
2022/07/29 09:36:29;;;;;;;9.40;7.00;;;;;;;;;;5001315;28;20301;-43
2022/07/29 09:38:59;;;;;;;8.47;6.73;;;;;;;;;;4987464;28;20567;-43
2022/07/29 09:41:25;;;;;;;9.70;6.80;;;;;;;;;;4983518;28;20578;-43
2022/07/29 09:43:59;;;;;;;8.17;6.03;;;;;;;;;;4984222;28;20183;-43
2022/07/29 09:46:27;;;;;;;8.50;5.57;;;;;;;;;;4986821;28;20661;-43
2022/07/29 09:49:09;;;;;;;7.53;6.03;;;;;;;;;;4986809;28;20487;-43
2022/07/29 09:51:36;;;;;;;7.67;6.47;;;;;;;;;;4983222;28;20295;-43
2022/07/29 09:54:04;;;;;;;8.70;6.20;;;;;;;;;;4985895;28;20356;-42
2022/07/29 09:56:43;;;;;;;8.80;6.80;;;;;;;;;;4985941;28;20548;-43
2022/07/29 09:59:11;;;;;;;6.57;5.10;;;;;;;;;;4985661;28;20733;-42
2022/07/29 10:01:37;;;;;;;10.57;6.67;;;;;;;;;;4985218;28;20228;-43
2022/07/29 10:04:04;;;;;;;6.63;5.40;;;;;;;;;;4988158;28;20286;-43
2022/07/29 10:06:30;;;;;;;7.27;5.17;;;;;;;;;;4985086;28;20177;-42
2022/07/29 10:09:08;;;;;;;8.10;7.27;;;;;;;;;;4983350;28;20252;-43
2022/07/29 10:11:34;;;;;;;7.60;6.00;;;;;;;;;;4987895;28;20208;-43
2022/07/29 10:14:02;;;;;;;6.80;5.97;;;;;;;;;;4993177;28;20177;-43
2022/07/29 10:16:32;;;;;;;8.00;5.93;;;;;;;;;;4987534;28;20269;-43
2022/07/29 10:18:59;;;;;;;8.30;6.67;;;;;;;;;;4990917;28;20515;-42
2022/07/29 10:21:25;;;;;;;7.83;6.47;;;;;;;;;;4991347;28;20601;-43
2022/07/29 10:23:53;;;;;;;6.20;5.60;;;;;;;;;;4987334;28;20630;-43
2022/07/29 10:26:20;;;;;;;7.83;5.97;;;;;;;;;;4989544;28;20176;-43
2022/07/29 10:28:46;;;;;;;9.87;6.17;;;;;;;;;;4990878;28;20566;-43
2022/07/29 10:31:43;;;;;;;9.77;5.93;;;;;;;;;;4983092;28;20211;-43
2022/07/29 10:34:17;;;;;;;6.03;5.07;;;;;;;;;;4988211;28;20178;-43
2022/07/29 10:37:02;;;;;;;6.90;4.57;;;;;;;;;;4989224;28;21955;-42
2022/07/29 10:39:28;;;;;;;6.23;4.70;;;;;;;;;;4985571;28;20453;-45
2022/07/29 10:42:12;;;;;;;6.57;4.63;;;;;;;;;;4985698;28;20216;-45
2022/07/29 10:44:40;;;;;;;6.23;4.73;;;;;;;;;;4986557;28;20180;-45
2022/07/29 10:47:06;;;;;;;5.07;4.00;;;;;;;;;;4991266;28;20277;-44
2022/07/29 10:49:33;;;;;;;5.17;4.57;;;;;;;;;;4987853;28;20518;-45
2022/07/29 10:52:03;;;;;;;6.50;4.67;;;;;;;;;;4984978;28;20202;-45
2022/07/29 10:54:42;;;;;;;6.60;4.80;;;;;;;;;;4988681;28;20221;-45
2022/07/29 10:57:12;;;;;;;6.37;4.80;;;;;;;;;;4990312;28;20818;-43
2022/07/29 10:59:38;;;;;;;5.97;4.43;;;;;;;;;;4986357;28;20764;-43
2022/07/29 11:02:24;;;;;;;6.33;4.80;;;;;;;;;;4985325;28;20711;-42
2022/07/29 11:04:53;;;;;;;9.00;3.90;;;;;;;;;;4988961;28;20814;-42
2022/07/29 11:07:19;;;;;;;8.73;5.00;;;;;;;;;;4988725;28;20400;-42
2022/07/29 11:10:05;;;;;;;6.20;4.80;;;;;;;;;;4987477;28;20188;-45
2022/07/29 11:12:37;;;;;;;6.80;4.50;;;;;;;;;;4986892;28;20222;-45
2022/07/29 11:15:05;;;;;;;6.70;4.67;;;;;;;;;;4988781;28;20281;-45
2022/07/29 11:17:51;;;;;;;9.83;4.57;;;;;;;;;;4988424;28;20679;-45
2022/07/29 11:20:34;;;;;;;6.30;4.10;;;;;;;;;;4986268;28;21035;-42
2022/07/29 11:23:00;;;;;;;7.57;4.43;;;;;;;;;;4985842;28;20184;-43
2022/07/29 11:25:26;;;;;;;4.37;3.97;;;;;;;;;;4987055;28;20759;-45
2022/07/29 11:28:09;;;;;;;4.13;3.70;;;;;;;;;;4987253;28;20183;-45
2022/07/29 11:30:49;;;;;;;7.90;4.50;;;;;;;;;;4984502;28;20276;-45
2022/07/29 11:33:28;;;;;;;5.70;4.50;;;;;;;;;;4985349;28;20499;-45
2022/07/29 11:36:11;;;;;;;6.87;4.33;;;;;;;;;;4988775;28;20189;-45
2022/07/29 11:38:37;;;;;;;7.40;4.50;;;;;;;;;;4989707;28;20214;-45
2022/07/29 11:41:22;;;;;;;7.27;4.10;;;;;;;;;;4991207;28;20369;-42
2022/07/29 11:43:58;;;;;;;8.57;4.37;;;;;;;;;;4986033;28;20188;-42
2022/07/29 11:46:43;;;;;;;6.67;4.60;;;;;;;;;;4987599;28;20257;-43
2022/07/29 11:49:09;;;;;;;5.93;4.57;;;;;;;;;;4990618;28;20332;-45
2022/07/29 11:51:39;;;;;;;5.43;4.47;;;;;;;;;;4988363;28;20250;-45
2022/07/29 11:54:05;;;;;;;5.53;4.70;;;;;;;;;;4984892;28;20183;-45
2022/07/29 11:56:32;;;;;;;6.77;4.40;;;;;;;;;;4988559;28;20232;-41
2022/07/29 11:59:05;;;;;;;8.50;4.60;;;;;;;;;;4990144;28;20346;-42
2022/07/29 12:01:32;;;;;;;5.47;4.20;;;;;;;;;;4985030;28;20187;-42
2022/07/29 12:04:06;;;;;;;7.13;4.43;;;;;;;;;;4987318;28;20489;-42
2022/07/29 12:06:32;;;;;;;5.33;4.17;;;;;;;;;;4989285;28;20255;-42
2022/07/29 12:08:58;;;;;;;5.13;4.37;;;;;;;;;;4987785;28;20202;-43
2022/07/29 12:11:25;;;;;;;5.27;3.83;;;;;;;;;;4985311;28;20952;-42
2022/07/29 12:13:52;;;;;;;4.37;3.97;;;;;;;;;;4986603;28;20474;-42
2022/07/29 12:16:18;;;;;;;6.53;4.10;;;;;;;;;;4988795;28;20184;-42
2022/07/29 12:18:55;;;;;;;4.80;3.93;;;;;;;;;;4985423;28;20361;-42
2022/07/29 12:21:21;;;;;;;6.73;3.80;;;;;;;;;;4986534;28;20163;-42
2022/07/29 12:23:54;;;;;;;7.20;3.90;;;;;;;;;;4988682;28;20314;-42
2022/07/29 12:26:20;;;;;;;5.87;4.03;;;;;;;;;;4988072;28;20467;-43
2022/07/29 12:28:46;;;;;;;5.63;3.87;;;;;;;;;;4987031;28;20210;-42
2022/07/29 12:31:16;;;;;;;5.00;3.97;;;;;;;;;;4983671;28;20754;-42
2022/07/29 12:33:42;;;;;;;6.97;4.10;;;;;;;;;;4986428;28;20173;-42
2022/07/29 12:36:09;;;;;;;4.77;3.80;;;;;;;;;;4986068;28;20567;-42
2022/07/29 12:38:35;;;;;;;4.87;4.00;;;;;;;;;;4986984;28;20180;-42
2022/07/29 12:41:01;;;;;;;6.53;4.27;;;;;;;;;;4985178;28;20186;-42
2022/07/29 12:43:28;;;;;;;4.40;3.93;;;;;;;;;;4987741;28;20339;-42
2022/07/29 12:45:55;;;;;;;4.47;3.70;;;;;;;;;;4987267;28;20810;-42
2022/07/29 12:48:37;;;;;;;5.37;3.70;;;;;;;;;;4985021;28;20213;-42
2022/07/29 12:51:04;;;;;;;4.37;3.73;;;;;;;;;;4988537;28;20191;-42
2022/07/29 12:53:32;;;;;;;6.50;3.77;;;;;;;;;;4990018;28;20196;-42
2022/07/29 12:56:01;;;;;;;4.00;3.60;;;;;;;;;;4986755;28;20170;-43
2022/07/29 12:58:32;;;;;;;6.57;3.90;;;;;;;;;;4981689;28;20179;-42
2022/07/29 13:01:02;;;;;;;8.30;3.80;;;;;;;;;;4986518;28;20276;-43
2022/07/29 13:03:28;;;;;;;6.00;3.87;;;;;;;;;;4989948;28;20288;-43
2022/07/29 13:05:54;;;;;;;5.93;3.50;;;;;;;;;;4982250;28;20641;-42
2022/07/29 13:08:20;;;;;;;7.73;4.07;;;;;;;;;;4986497;28;20178;-42
2022/07/29 13:10:46;;;;;;;4.70;3.67;;;;;;;;;;4991187;28;20177;-42
2022/07/29 13:13:13;;;;;;;5.70;3.90;;;;;;;;;;4988861;28;20602;-42
2022/07/29 13:15:42;;;;;;;6.13;3.70;;;;;;;;;;4986612;28;20498;-42
2022/07/29 13:18:28;;;;;;;6.93;3.83;;;;;;;;;;4984001;28;20466;-42
2022/07/29 13:20:54;;;;;;;5.77;3.90;;;;;;;;;;4989617;28;20200;-42
2022/07/29 13:23:20;;;;;;;4.07;3.50;;;;;;;;;;4989612;28;20269;-42
2022/07/29 13:25:46;;;;;;;4.63;3.57;;;;;;;;;;4982437;28;20279;-42
2022/07/29 13:28:12;;;;;;;7.67;3.80;;;;;;;;;;4987425;28;20541;-42
2022/07/29 13:30:40;;;;;;;6.47;3.90;;;;;;;;;;4990116;28;20843;-42
2022/07/29 13:33:07;;;;;;;4.90;3.63;;;;;;;;;;4984119;28;20219;-42
2022/07/29 13:35:33;;;;;;;5.27;3.90;;;;;;;;;;4982888;28;20181;-42
2022/07/29 13:37:59;;;;;;;4.80;3.50;;;;;;;;;;4989012;28;21455;-42
2022/07/29 13:40:25;;;;;;;5.30;3.93;;;;;;;;;;4984320;28;20166;-42
2022/07/29 13:42:51;;;;;;;4.37;3.63;;;;;;;;;;4983670;28;20637;-42
2022/07/29 13:45:18;;;;;;;8.67;3.87;;;;;;;;;;4984018;28;20208;-42
2022/07/29 13:47:44;;;;;;;4.93;3.60;;;;;;;;;;4990747;28;21023;-43
2022/07/29 13:50:11;;;;;;;4.43;3.53;;;;;;;;;;4989378;28;20176;-42
2022/07/29 13:52:38;;;;;;;5.30;3.60;;;;;;;;;;4990077;28;20201;-42
2022/07/29 13:55:04;;;;;;;7.10;3.83;;;;;;;;;;4989843;28;20259;-42
2022/07/29 13:57:30;;;;;;;5.07;3.70;;;;;;;;;;5003738;28;20187;-42
2022/07/29 13:59:57;;;;;;;6.30;3.10;;;;;;;;;;4989163;28;20555;-42
2022/07/29 14:02:23;;;;;;;3.87;3.50;;;;;;;;;;4988160;28;20595;-43
2022/07/29 14:04:49;;;;;;;6.13;3.37;;;;;;;;;;4987808;28;20277;-42
2022/07/29 14:07:15;;;;;;;4.50;3.50;;;;;;;;;;4990701;28;20194;-42
2022/07/29 14:09:41;;;;;;;5.23;3.30;;;;;;;;;;4990755;28;20417;-42
2022/07/29 14:12:08;;;;;;;4.70;3.47;;;;;;;;;;4987519;28;20648;-43
2022/07/29 14:14:36;;;;;;;4.17;3.37;;;;;;;;;;4988506;28;20375;-43
2022/07/29 14:17:02;;;;;;;4.37;3.43;;;;;;;;;;4991670;28;20479;-42
2022/07/29 14:19:29;;;;;;;4.53;3.50;;;;;;;;;;4990703;28;20196;-43
2022/07/29 14:21:55;;;;;;;5.93;3.80;;;;;;;;;;4989687;28;20212;-43
2022/07/29 14:24:21;;;;;;;5.30;3.60;;;;;;;;;;4991726;28;20575;-43
2022/07/29 14:26:47;;;;;;;4.43;3.80;;;;;;;;;;4987165;28;20184;-43
2022/07/29 14:29:13;;;;;;;6.43;3.80;;;;;;;;;;4990738;28;20183;-43
2022/07/29 14:31:39;;;;;;;6.33;3.93;;;;;;;;;;4990911;28;20749;-43
2022/07/29 14:34:05;;;;;;;5.13;3.73;;;;;;;;;;4989256;28;20410;-43
2022/07/29 14:36:31;;;;;;;7.27;3.87;;;;;;;;;;4986607;28;20246;-42
2022/07/29 14:38:57;;;;;;;6.00;3.73;;;;;;;;;;4989137;28;20181;-42
2022/07/29 14:41:23;;;;;;;4.57;3.90;;;;;;;;;;4989826;28;20920;-42
2022/07/29 14:43:49;;;;;;;6.63;4.20;;;;;;;;;;4978242;28;20392;-42
2022/07/29 14:46:15;;;;;;;7.23;3.90;;;;;;;;;;4978346;28;20974;-41